sensor_id;sensor_type;location;lat;lon;timestamp;pressure;altitude;pressure_sealevel;temperature;humidity
68656;BME280;55638;51.122;13.606;2023-06-19T00:01:16;99895.13;;;16.93;49.21
68656;BME280;55638;51.122;13.606;2023-06-19T00:02:48;99897.84;;;16.93;49.17
68656;BME280;55638;51.122;13.606;2023-06-19T00:04:20;99894.97;;;16.94;49.12
68656;BME280;55638;51.122;13.606;2023-06-19T00:05:52;99894.13;;;16.94;48.98
68656;BME280;55638;51.122;13.606;2023-06-19T00:07:24;99894.97;;;16.94;49.24
68656;BME280;55638;51.122;13.606;2023-06-19T00:08:56;99889.69;;;16.93;49.35
68656;BME280;55638;51.122;13.606;2023-06-19T00:10:28;99891.56;;;16.92;49.13
68656;BME280;55638;51.122;13.606;2023-06-19T00:11:59;99889.88;;;16.91;49.00
68656;BME280;55638;51.122;13.606;2023-06-19T00:13:33;99886.47;;;16.89;48.94
68656;BME280;55638;51.122;13.606;2023-06-19T00:15:06;99890.03;;;16.90;48.82
68656;BME280;55638;51.122;13.606;2023-06-19T00:16:39;99884.78;;;16.88;48.90
68656;BME280;55638;51.122;13.606;2023-06-19T00:18:12;99885.13;;;16.85;49.14
68656;BME280;55638;51.122;13.606;2023-06-19T00:19:44;99889.91;;;16.83;49.01
68656;BME280;55638;51.122;13.606;2023-06-19T00:21:16;99899.09;;;16.82;48.82
68656;BME280;55638;51.122;13.606;2023-06-19T00:22:48;99886.53;;;16.81;48.67
68656;BME280;55638;51.122;13.606;2023-06-19T00:24:23;99886.03;;;16.78;48.70
68656;BME280;55638;51.122;13.606;2023-06-19T00:25:55;99893.50;;;16.76;48.81
68656;BME280;55638;51.122;13.606;2023-06-19T00:27:27;99899.13;;;16.74;48.73
68656;BME280;55638;51.122;13.606;2023-06-19T00:28:59;99899.31;;;16.73;48.80
68656;BME280;55638;51.122;13.606;2023-06-19T00:30:32;99892.53;;;16.68;49.09
68656;BME280;55638;51.122;13.606;2023-06-19T00:32:05;99898.97;;;16.67;48.95
68656;BME280;55638;51.122;13.606;2023-06-19T00:33:38;99892.03;;;16.65;48.86
68656;BME280;55638;51.122;13.606;2023-06-19T00:35:10;99895.94;;;16.62;49.25
68656;BME280;55638;51.122;13.606;2023-06-19T00:36:42;99893.38;;;16.61;48.93
68656;BME280;55638;51.122;13.606;2023-06-19T00:38:15;99889.16;;;16.58;49.25
68656;BME280;55638;51.122;13.606;2023-06-19T00:39:47;99888.47;;;16.56;48.88
68656;BME280;55638;51.122;13.606;2023-06-19T00:41:19;99891.38;;;16.55;49.16
68656;BME280;55638;51.122;13.606;2023-06-19T00:42:51;99890.00;;;16.51;48.98
68656;BME280;55638;51.122;13.606;2023-06-19T00:44:24;99892.06;;;16.49;49.28
68656;BME280;55638;51.122;13.606;2023-06-19T00:45:57;99887.63;;;16.47;49.49
68656;BME280;55638;51.122;13.606;2023-06-19T00:47:29;99895.16;;;16.45;49.15
68656;BME280;55638;51.122;13.606;2023-06-19T00:49:01;99894.47;;;16.43;49.14
68656;BME280;55638;51.122;13.606;2023-06-19T00:50:33;99892.78;;;16.42;49.35
68656;BME280;55638;51.122;13.606;2023-06-19T00:52:06;99887.50;;;16.41;49.35
68656;BME280;55638;51.122;13.606;2023-06-19T00:53:39;99884.13;;;16.39;49.48
68656;BME280;55638;51.122;13.606;2023-06-19T00:55:11;99888.69;;;16.38;49.57
68656;BME280;55638;51.122;13.606;2023-06-19T00:56:44;99882.22;;;16.39;49.48
68656;BME280;55638;51.122;13.606;2023-06-19T00:58:16;99879.84;;;16.36;49.74
68656;BME280;55638;51.122;13.606;2023-06-19T00:59:51;99871.69;;;16.36;49.64
68656;BME280;55638;51.122;13.606;2023-06-19T01:01:24;99881.75;;;16.36;49.51
68656;BME280;55638;51.122;13.606;2023-06-19T01:02:58;99880.00;;;16.35;49.34
68656;BME280;55638;51.122;13.606;2023-06-19T01:04:32;99878.28;;;16.34;49.72
68656;BME280;55638;51.122;13.606;2023-06-19T01:06:14;99884.09;;;16.31;50.06
68656;BME280;55638;51.122;13.606;2023-06-19T01:08:00;99887.00;;;16.29;50.22
68656;BME280;55638;51.122;13.606;2023-06-19T01:09:42;99886.16;;;16.29;49.84
68656;BME280;55638;51.122;13.606;2023-06-19T01:11:19;99885.97;;;16.30;49.90
68656;BME280;55638;51.122;13.606;2023-06-19T01:13:06;99882.75;;;16.27;50.47
68656;BME280;55638;51.122;13.606;2023-06-19T01:14:48;99881.06;;;16.26;49.96
68656;BME280;55638;51.122;13.606;2023-06-19T01:16:22;99881.06;;;16.26;49.71
68656;BME280;55638;51.122;13.606;2023-06-19T01:17:56;99883.09;;;16.23;50.14
68656;BME280;55638;51.122;13.606;2023-06-19T01:19:29;99876.94;;;16.21;50.01
68656;BME280;55638;51.122;13.606;2023-06-19T01:21:18;99886.66;;;16.16;51.29
68656;BME280;55638;51.122;13.606;2023-06-19T01:22:50;99874.41;;;16.20;50.25
68656;BME280;55638;51.122;13.606;2023-06-19T01:24:23;99873.75;;;16.18;50.03
68656;BME280;55638;51.122;13.606;2023-06-19T01:25:54;99870.34;;;16.16;49.90
68656;BME280;55638;51.122;13.606;2023-06-19T01:27:27;99874.06;;;16.15;50.12
68656;BME280;55638;51.122;13.606;2023-06-19T01:29:03;99860.66;;;16.13;50.38
68656;BME280;55638;51.122;13.606;2023-06-19T01:30:37;99860.81;;;16.12;50.24
68656;BME280;55638;51.122;13.606;2023-06-19T01:32:15;99873.75;;;16.10;50.51
68656;BME280;55638;51.122;13.606;2023-06-19T01:33:52;99876.63;;;16.08;50.58
68656;BME280;55638;51.122;13.606;2023-06-19T01:35:28;99866.94;;;16.06;50.41
68656;BME280;55638;51.122;13.606;2023-06-19T01:37:03;99866.09;;;16.05;50.38
68656;BME280;55638;51.122;13.606;2023-06-19T01:38:37;99861.84;;;16.02;50.43
68656;BME280;55638;51.122;13.606;2023-06-19T01:40:11;99864.75;;;16.01;50.69
68656;BME280;55638;51.122;13.606;2023-06-19T01:41:44;99859.50;;;15.99;50.44
68656;BME280;55638;51.122;13.606;2023-06-19T01:43:17;99855.91;;;15.99;50.45
68656;BME280;55638;51.122;13.606;2023-06-19T01:44:50;99848.78;;;15.98;50.32
68656;BME280;55638;51.122;13.606;2023-06-19T01:46:22;99850.66;;;15.97;50.51
68656;BME280;55638;51.122;13.606;2023-06-19T01:47:54;99848.28;;;15.94;50.35
68656;BME280;55638;51.122;13.606;2023-06-19T01:49:27;99846.25;;;15.96;50.56
68656;BME280;55638;51.122;13.606;2023-06-19T01:50:59;99852.69;;;15.95;50.38
68656;BME280;55638;51.122;13.606;2023-06-19T01:52:31;99849.97;;;15.95;50.53
68656;BME280;55638;51.122;13.606;2023-06-19T01:54:03;99848.28;;;15.94;50.44
68656;BME280;55638;51.122;13.606;2023-06-19T01:55:36;99843.03;;;15.93;50.32
68656;BME280;55638;51.122;13.606;2023-06-19T01:57:08;99843.88;;;15.93;50.41
68656;BME280;55638;51.122;13.606;2023-06-19T01:58:40;99846.94;;;15.90;50.78
68656;BME280;55638;51.122;13.606;2023-06-19T02:00:12;99849.66;;;15.90;50.60
68656;BME280;55638;51.122;13.606;2023-06-19T02:01:44;99844.22;;;15.90;50.39
68656;BME280;55638;51.122;13.606;2023-06-19T02:03:16;99834.34;;;15.89;50.65
68656;BME280;55638;51.122;13.606;2023-06-19T02:04:48;99835.38;;;15.88;50.62
68656;BME280;55638;51.122;13.606;2023-06-19T02:06:20;99839.13;;;15.87;50.66
68656;BME280;55638;51.122;13.606;2023-06-19T02:07:53;99840.81;;;15.88;50.51
68656;BME280;55638;51.122;13.606;2023-06-19T02:09:25;99832.84;;;15.87;50.85
68656;BME280;55638;51.122;13.606;2023-06-19T02:10:57;99840.31;;;15.85;50.86
68656;BME280;55638;51.122;13.606;2023-06-19T02:12:29;99842.00;;;15.86;50.89
68656;BME280;55638;51.122;13.606;2023-06-19T02:14:02;99839.13;;;15.87;50.68
68656;BME280;55638;51.122;13.606;2023-06-19T02:15:34;99841.00;;;15.87;50.61
68656;BME280;55638;51.122;13.606;2023-06-19T02:17:06;99840.13;;;15.86;50.64
68656;BME280;55638;51.122;13.606;2023-06-19T02:18:39;99833.69;;;15.87;50.82
68656;BME280;55638;51.122;13.606;2023-06-19T02:20:11;99839.13;;;15.87;51.02
68656;BME280;55638;51.122;13.606;2023-06-19T02:21:43;99831.81;;;15.88;50.88
68656;BME280;55638;51.122;13.606;2023-06-19T02:23:15;99838.09;;;15.88;51.20
68656;BME280;55638;51.122;13.606;2023-06-19T02:24:47;99829.09;;;15.88;51.20
68656;BME280;55638;51.122;13.606;2023-06-19T02:26:19;99832.84;;;15.87;51.07
68656;BME280;55638;51.122;13.606;2023-06-19T02:27:51;99838.28;;;15.87;51.12
68656;BME280;55638;51.122;13.606;2023-06-19T02:29:23;99836.41;;;15.87;50.82
68656;BME280;55638;51.122;13.606;2023-06-19T02:30:55;99836.41;;;15.87;51.13
68656;BME280;55638;51.122;13.606;2023-06-19T02:32:27;99829.25;;;15.86;51.34
68656;BME280;55638;51.122;13.606;2023-06-19T02:33:59;99831.97;;;15.86;51.03
68656;BME280;55638;51.122;13.606;2023-06-19T02:35:31;99830.28;;;15.85;50.87
68656;BME280;55638;51.122;13.606;2023-06-19T02:37:03;99829.44;;;15.85;51.15
68656;BME280;55638;51.122;13.606;2023-06-19T02:38:35;99832.16;;;15.85;51.28
68656;BME280;55638;51.122;13.606;2023-06-19T02:40:08;99825.88;;;15.84;51.41
68656;BME280;55638;51.122;13.606;2023-06-19T02:41:41;99828.75;;;15.83;51.29
68656;BME280;55638;51.122;13.606;2023-06-19T02:43:17;99825.88;;;15.84;51.29
68656;BME280;55638;51.122;13.606;2023-06-19T02:44:49;99825.19;;;15.82;51.11
68656;BME280;55638;51.122;13.606;2023-06-19T02:46:21;99827.91;;;15.82;50.91
68656;BME280;55638;51.122;13.606;2023-06-19T02:47:53;99817.22;;;15.81;51.21
68656;BME280;55638;51.122;13.606;2023-06-19T02:49:25;99816.38;;;15.80;51.36
68656;BME280;55638;51.122;13.606;2023-06-19T02:50:57;99818.22;;;15.80;51.25
68656;BME280;55638;51.122;13.606;2023-06-19T02:52:29;99821.97;;;15.78;51.13
68656;BME280;55638;51.122;13.606;2023-06-19T02:54:01;99829.28;;;15.78;51.20
68656;BME280;55638;51.122;13.606;2023-06-19T02:55:33;99823.84;;;15.78;51.62
68656;BME280;55638;51.122;13.606;2023-06-19T02:57:07;99822.16;;;15.77;51.51
68656;BME280;55638;51.122;13.606;2023-06-19T02:58:40;99825.72;;;15.77;51.27
68656;BME280;55638;51.122;13.606;2023-06-19T03:00:13;99817.56;;;15.77;51.47
68656;BME280;55638;51.122;13.606;2023-06-19T03:01:47;99818.41;;;15.78;51.53
68656;BME280;55638;51.122;13.606;2023-06-19T03:03:19;99819.44;;;15.77;51.84
68656;BME280;55638;51.122;13.606;2023-06-19T03:04:52;99816.72;;;15.77;51.67
68656;BME280;55638;51.122;13.606;2023-06-19T03:06:24;99814.66;;;15.79;51.85
68656;BME280;55638;51.122;13.606;2023-06-19T03:07:57;99811.09;;;15.78;51.87
68656;BME280;55638;51.122;13.606;2023-06-19T03:09:29;99813.66;;;15.80;51.76
68656;BME280;55638;51.122;13.606;2023-06-19T03:11:01;99817.88;;;15.83;51.82
68656;BME280;55638;51.122;13.606;2023-06-19T03:12:36;99816.03;;;15.83;51.97
68656;BME280;55638;51.122;13.606;2023-06-19T03:14:08;99816.69;;;15.85;51.84
68656;BME280;55638;51.122;13.606;2023-06-19T03:15:41;99810.22;;;15.86;51.77
68656;BME280;55638;51.122;13.606;2023-06-19T03:17:13;99819.91;;;15.89;51.84
68656;BME280;55638;51.122;13.606;2023-06-19T03:18:45;99810.75;;;15.90;51.84
68656;BME280;55638;51.122;13.606;2023-06-19T03:20:21;99815.84;;;15.93;51.97
68656;BME280;55638;51.122;13.606;2023-06-19T03:21:59;99810.22;;;15.94;52.01
68656;BME280;55638;51.122;13.606;2023-06-19T03:23:31;99810.91;;;15.96;51.84
68656;BME280;55638;51.122;13.606;2023-06-19T03:25:03;99815.31;;;15.97;51.77
68656;BME280;55638;51.122;13.606;2023-06-19T03:26:35;99819.56;;;16.00;51.84
68656;BME280;55638;51.122;13.606;2023-06-19T03:28:07;99818.34;;;16.02;51.77
68656;BME280;55638;51.122;13.606;2023-06-19T03:29:40;99816.16;;;16.06;51.66
68656;BME280;55638;51.122;13.606;2023-06-19T03:31:17;99821.41;;;16.08;51.73
68656;BME280;55638;51.122;13.606;2023-06-19T03:32:49;99812.22;;;16.09;51.91
68656;BME280;55638;51.122;13.606;2023-06-19T03:34:39;99815.63;;;16.11;51.88
68656;BME280;55638;51.122;13.606;2023-06-19T03:36:13;99815.44;;;16.12;51.67
68656;BME280;55638;51.122;13.606;2023-06-19T03:37:55;99818.69;;;16.16;51.52
68656;BME280;55638;51.122;13.606;2023-06-19T03:39:26;99822.91;;;16.18;51.25
68656;BME280;55638;51.122;13.606;2023-06-19T03:41:05;99816.47;;;16.19;51.39
68656;BME280;55638;51.122;13.606;2023-06-19T03:42:36;99813.56;;;16.21;51.22
68656;BME280;55638;51.122;13.606;2023-06-19T03:44:08;99807.28;;;16.20;51.13
68656;BME280;55638;51.122;13.606;2023-06-19T03:45:40;99808.13;;;16.21;51.41
68656;BME280;55638;51.122;13.606;2023-06-19T03:47:13;99813.56;;;16.21;51.22
68656;BME280;55638;51.122;13.606;2023-06-19T03:48:45;99815.44;;;16.20;51.05
68656;BME280;55638;51.122;13.606;2023-06-19T03:50:17;99816.28;;;16.21;51.34
68656;BME280;55638;51.122;13.606;2023-06-19T03:51:55;99819.00;;;16.21;51.31
68656;BME280;55638;51.122;13.606;2023-06-19T03:53:28;99814.59;;;16.20;50.90
68656;BME280;55638;51.122;13.606;2023-06-19T03:55:00;99821.91;;;16.19;51.31
68656;BME280;55638;51.122;13.606;2023-06-19T03:56:32;99822.06;;;16.18;51.11
68656;BME280;55638;51.122;13.606;2023-06-19T03:58:03;99818.50;;;16.17;51.25
68656;BME280;55638;51.122;13.606;2023-06-19T03:59:36;99818.69;;;16.16;51.38
68656;BME280;55638;51.122;13.606;2023-06-19T04:01:08;99818.84;;;16.14;51.51
68656;BME280;55638;51.122;13.606;2023-06-19T04:02:39;99818.00;;;16.14;51.43
68656;BME280;55638;51.122;13.606;2023-06-19T04:04:11;99823.59;;;16.12;51.30
68656;BME280;55638;51.122;13.606;2023-06-19T04:05:44;99814.59;;;16.12;51.40
68656;BME280;55638;51.122;13.606;2023-06-19T04:07:16;99815.44;;;16.12;51.32
68656;BME280;55638;51.122;13.606;2023-06-19T04:08:48;99823.44;;;16.14;51.66
68656;BME280;55638;51.122;13.606;2023-06-19T04:10:20;99817.81;;;16.15;51.60
68656;BME280;55638;51.122;13.606;2023-06-19T04:11:52;99814.94;;;16.17;51.80
68656;BME280;55638;51.122;13.606;2023-06-19T04:13:24;99805.59;;;16.19;51.89
68656;BME280;55638;51.122;13.606;2023-06-19T04:14:57;99814.25;;;16.23;51.68
68656;BME280;55638;51.122;13.606;2023-06-19T04:16:29;99813.91;;;16.26;51.87
68656;BME280;55638;51.122;13.606;2023-06-19T04:18:01;99821.72;;;16.29;51.59
68656;BME280;55638;51.122;13.606;2023-06-19T04:19:34;99827.47;;;16.34;51.87
68656;BME280;55638;51.122;13.606;2023-06-19T04:21:06;99829.88;;;16.37;51.88
68656;BME280;55638;51.122;13.606;2023-06-19T04:22:42;99835.44;;;16.44;51.51
68656;BME280;55638;51.122;13.606;2023-06-19T04:24:14;99829.50;;;16.49;51.89
68656;BME280;55638;51.122;13.606;2023-06-19T04:25:46;99835.25;;;16.54;52.20
68656;BME280;55638;51.122;13.606;2023-06-19T04:27:18;99829.31;;;16.58;52.19
68656;BME280;55638;51.122;13.606;2023-06-19T04:28:50;99828.22;;;16.67;51.95
68656;BME280;55638;51.122;13.606;2023-06-19T04:30:22;99832.59;;;16.77;52.09
68656;BME280;55638;51.122;13.606;2023-06-19T04:31:54;99829.84;;;16.85;51.76
68656;BME280;55638;51.122;13.606;2023-06-19T04:33:27;99822.66;;;16.92;51.72
68656;BME280;55638;51.122;13.606;2023-06-19T04:35:00;99828.25;;;16.99;51.73
68656;BME280;55638;51.122;13.606;2023-06-19T04:36:32;99820.03;;;17.07;51.42
68656;BME280;55638;51.122;13.606;2023-06-19T04:38:04;99815.72;;;17.12;51.28
68656;BME280;55638;51.122;13.606;2023-06-19T04:39:36;99824.06;;;17.19;50.94
68656;BME280;55638;51.122;13.606;2023-06-19T04:41:08;99820.59;;;17.25;51.26
68656;BME280;55638;51.122;13.606;2023-06-19T04:42:40;99820.09;;;17.30;51.03
68656;BME280;55638;51.122;13.606;2023-06-19T04:44:12;99817.47;;;17.36;50.83
68656;BME280;55638;51.122;13.606;2023-06-19T04:45:44;99821.53;;;17.40;51.09
68656;BME280;55638;51.122;13.606;2023-06-19T04:47:19;99812.63;;;17.47;50.71
68656;BME280;55638;51.122;13.606;2023-06-19T04:48:51;99823.81;;;17.52;50.64
68656;BME280;55638;51.122;13.606;2023-06-19T04:50:23;99817.84;;;17.56;50.77
68656;BME280;55638;51.122;13.606;2023-06-19T04:51:56;99821.88;;;17.60;50.54
68656;BME280;55638;51.122;13.606;2023-06-19T04:53:28;99822.19;;;17.66;50.28
68656;BME280;55638;51.122;13.606;2023-06-19T04:55:00;99821.47;;;17.72;50.18
68656;BME280;55638;51.122;13.606;2023-06-19T04:56:32;99827.56;;;17.74;50.08
68656;BME280;55638;51.122;13.606;2023-06-19T04:58:04;99828.88;;;17.78;50.07
68656;BME280;55638;51.122;13.606;2023-06-19T04:59:36;99825.97;;;17.79;50.02
68656;BME280;55638;51.122;13.606;2023-06-19T05:01:08;99833.97;;;17.81;50.01
68656;BME280;55638;51.122;13.606;2023-06-19T05:02:42;99835.47;;;17.83;49.97
68656;BME280;55638;51.122;13.606;2023-06-19T05:04:19;99843.13;;;17.88;50.02
68656;BME280;55638;51.122;13.606;2023-06-19T05:05:51;99851.09;;;17.90;49.98
68656;BME280;55638;51.122;13.606;2023-06-19T05:07:23;99844.59;;;17.91;49.74
68656;BME280;55638;51.122;13.606;2023-06-19T05:08:55;99843.59;;;17.92;49.98
68656;BME280;55638;51.122;13.606;2023-06-19T05:10:27;99834.22;;;17.94;49.91
68656;BME280;55638;51.122;13.606;2023-06-19T05:11:59;99842.22;;;17.96;49.54
68656;BME280;55638;51.122;13.606;2023-06-19T05:13:30;99838.44;;;17.97;49.86
68656;BME280;55638;51.122;13.606;2023-06-19T05:15:03;99836.41;;;17.99;49.62
68656;BME280;55638;51.122;13.606;2023-06-19T05:16:35;99835.34;;;18.00;49.77
68656;BME280;55638;51.122;13.606;2023-06-19T05:18:08;99836.66;;;18.04;49.47
68656;BME280;55638;51.122;13.606;2023-06-19T05:19:40;99834.63;;;18.06;49.70
68656;BME280;55638;51.122;13.606;2023-06-19T05:21:11;99834.25;;;18.09;49.39
68656;BME280;55638;51.122;13.606;2023-06-19T05:22:44;99833.69;;;18.14;49.33
68656;BME280;55638;51.122;13.606;2023-06-19T05:24:16;99832.47;;;18.16;49.51
68656;BME280;55638;51.122;13.606;2023-06-19T05:25:48;99841.97;;;18.20;49.90
68656;BME280;55638;51.122;13.606;2023-06-19T05:27:19;99833.41;;;18.23;49.61
68656;BME280;55638;51.122;13.606;2023-06-19T05:28:52;99834.75;;;18.27;49.54
68656;BME280;55638;51.122;13.606;2023-06-19T05:30:23;99833.31;;;18.31;49.68
68656;BME280;55638;51.122;13.606;2023-06-19T05:31:56;99832.75;;;18.36;49.55
68656;BME280;55638;51.122;13.606;2023-06-19T05:33:28;99833.06;;;18.41;49.49
68656;BME280;55638;51.122;13.606;2023-06-19T05:35:00;99841.69;;;18.45;49.29
68656;BME280;55638;51.122;13.606;2023-06-19T05:36:33;99837.56;;;18.49;49.52
68656;BME280;55638;51.122;13.606;2023-06-19T05:38:05;99841.63;;;18.53;49.06
68656;BME280;55638;51.122;13.606;2023-06-19T05:39:37;99835.59;;;18.58;49.34
68656;BME280;55638;51.122;13.606;2023-06-19T05:41:09;99835.22;;;18.61;49.16
68656;BME280;55638;51.122;13.606;2023-06-19T05:42:41;99836.50;;;18.65;49.22
68656;BME280;55638;51.122;13.606;2023-06-19T05:44:13;99841.81;;;18.66;48.73
68656;BME280;55638;51.122;13.606;2023-06-19T05:45:48;99843.13;;;18.70;48.66
68656;BME280;55638;51.122;13.606;2023-06-19T05:47:20;99847.19;;;18.74;48.54
68656;BME280;55638;51.122;13.606;2023-06-19T05:48:53;99845.13;;;18.76;48.70
68656;BME280;55638;51.122;13.606;2023-06-19T05:50:26;99831.25;;;18.78;48.70
68656;BME280;55638;51.122;13.606;2023-06-19T05:51:58;99834.44;;;18.82;48.81
68656;BME280;55638;51.122;13.606;2023-06-19T05:53:30;99832.56;;;18.82;48.92
68656;BME280;55638;51.122;13.606;2023-06-19T05:55:03;99836.81;;;18.85;48.81
68656;BME280;55638;51.122;13.606;2023-06-19T05:56:35;99838.50;;;18.86;48.54
68656;BME280;55638;51.122;13.606;2023-06-19T05:58:08;99838.97;;;18.89;48.84
68656;BME280;55638;51.122;13.606;2023-06-19T05:59:40;99839.81;;;18.90;48.50
68656;BME280;55638;51.122;13.606;2023-06-19T06:01:13;99845.75;;;18.93;48.62
68656;BME280;55638;51.122;13.606;2023-06-19T06:02:45;99842.81;;;18.95;48.48
68656;BME280;55638;51.122;13.606;2023-06-19T06:04:17;99833.59;;;18.96;48.72
68656;BME280;55638;51.122;13.606;2023-06-19T06:05:50;99843.09;;;19.00;48.48
68656;BME280;55638;51.122;13.606;2023-06-19T06:07:22;99837.41;;;19.01;48.45
68656;BME280;55638;51.122;13.606;2023-06-19T06:08:54;99842.50;;;19.05;48.49
68656;BME280;55638;51.122;13.606;2023-06-19T06:10:26;99849.47;;;19.07;48.35
68656;BME280;55638;51.122;13.606;2023-06-19T06:11:59;99848.03;;;19.11;48.66
68656;BME280;55638;51.122;13.606;2023-06-19T06:13:31;99853.31;;;19.13;48.19
68656;BME280;55638;51.122;13.606;2023-06-19T06:15:06;99850.22;;;19.16;48.14
68656;BME280;55638;51.122;13.606;2023-06-19T06:16:38;99853.56;;;19.18;48.53
68656;BME280;55638;51.122;13.606;2023-06-19T06:18:10;99854.06;;;19.21;48.42
68656;BME280;55638;51.122;13.606;2023-06-19T06:19:42;99853.00;;;19.22;48.43
68656;BME280;55638;51.122;13.606;2023-06-19T06:21:14;99859.78;;;19.26;48.20
68656;BME280;55638;51.122;13.606;2023-06-19T06:22:46;99859.41;;;19.30;48.19
68656;BME280;55638;51.122;13.606;2023-06-19T06:24:17;99854.59;;;19.32;47.94
68656;BME280;55638;51.122;13.606;2023-06-19T06:25:49;99852.50;;;19.34;47.75
68656;BME280;55638;51.122;13.606;2023-06-19T06:27:21;99854.84;;;19.37;48.15
68656;BME280;55638;51.122;13.606;2023-06-19T06:28:54;99850.03;;;19.39;47.96
68656;BME280;55638;51.122;13.606;2023-06-19T06:30:26;99857.88;;;19.42;47.63
68656;BME280;55638;51.122;13.606;2023-06-19T06:32:03;99856.84;;;19.43;47.85
68656;BME280;55638;51.122;13.606;2023-06-19T06:33:36;99864.66;;;19.46;47.73
68656;BME280;55638;51.122;13.606;2023-06-19T06:35:08;99862.38;;;19.49;47.57
68656;BME280;55638;51.122;13.606;2023-06-19T06:36:40;99865.94;;;19.50;47.43
68656;BME280;55638;51.122;13.606;2023-06-19T06:38:31;99857.34;;;19.53;47.68
68656;BME280;55638;51.122;13.606;2023-06-19T06:40:05;99868.09;;;19.55;47.70
68656;BME280;55638;51.122;13.606;2023-06-19T06:41:40;99863.28;;;19.57;47.72
68656;BME280;55638;51.122;13.606;2023-06-19T06:43:16;99865.84;;;19.58;47.60
68656;BME280;55638;51.122;13.606;2023-06-19T06:44:48;99871.75;;;19.62;47.87
68656;BME280;55638;51.122;13.606;2023-06-19T06:46:20;99873.25;;;19.64;47.85
68656;BME280;55638;51.122;13.606;2023-06-19T06:47:52;99875.59;;;19.67;47.65
68656;BME280;55638;51.122;13.606;2023-06-19T06:49:24;99873.50;;;19.69;47.75
68656;BME280;55638;51.122;13.606;2023-06-19T06:50:56;99872.25;;;19.72;47.74
68656;BME280;55638;51.122;13.606;2023-06-19T06:52:32;99879.03;;;19.76;47.86
68656;BME280;55638;51.122;13.606;2023-06-19T06:54:05;99870.25;;;19.81;47.49
68656;BME280;55638;51.122;13.606;2023-06-19T06:55:37;99867.75;;;19.86;47.45
68656;BME280;55638;51.122;13.606;2023-06-19T06:57:09;99868.03;;;19.91;47.35
68656;BME280;55638;51.122;13.606;2023-06-19T06:58:41;99869.31;;;19.95;47.76
68656;BME280;55638;51.122;13.606;2023-06-19T07:00:13;99872.09;;;20.02;47.61
68656;BME280;55638;51.122;13.606;2023-06-19T07:01:45;99874.25;;;20.06;47.52
68656;BME280;55638;51.122;13.606;2023-06-19T07:03:17;99877.94;;;20.13;47.46
68656;BME280;55638;51.122;13.606;2023-06-19T07:04:50;99873.56;;;20.19;47.51
68656;BME280;55638;51.122;13.606;2023-06-19T07:06:22;99884.34;;;20.27;47.61
68656;BME280;55638;51.122;13.606;2023-06-19T07:07:54;99876.38;;;20.32;47.18
68656;BME280;55638;51.122;13.606;2023-06-19T07:09:26;99879.16;;;20.39;46.97
68656;BME280;55638;51.122;13.606;2023-06-19T07:10:58;99873.72;;;20.46;47.10
68656;BME280;55638;51.122;13.606;2023-06-19T07:12:30;99883.03;;;20.51;47.17
68656;BME280;55638;51.122;13.606;2023-06-19T07:14:02;99879.47;;;20.57;47.02
68656;BME280;55638;51.122;13.606;2023-06-19T07:15:34;99879.50;;;20.64;47.03
68656;BME280;55638;51.122;13.606;2023-06-19T07:17:06;99885.06;;;20.71;47.04
68656;BME280;55638;51.122;13.606;2023-06-19T07:18:39;99882.13;;;20.79;46.96
68656;BME280;55638;51.122;13.606;2023-06-19T07:20:13;99884.09;;;20.85;47.15
68656;BME280;55638;51.122;13.606;2023-06-19T07:21:45;99881.38;;;20.92;46.88
68656;BME280;55638;51.122;13.606;2023-06-19T07:23:17;99873.84;;;21.00;46.79
68656;BME280;55638;51.122;13.606;2023-06-19T07:24:49;99873.47;;;21.10;46.79
68656;BME280;55638;51.122;13.606;2023-06-19T07:26:21;99879.59;;;21.19;46.47
68656;BME280;55638;51.122;13.606;2023-06-19T07:27:53;99884.50;;;21.30;46.39
68656;BME280;55638;51.122;13.606;2023-06-19T07:29:25;99869.56;;;21.39;46.17
68656;BME280;55638;51.122;13.606;2023-06-19T07:30:58;99864.72;;;21.48;46.06
68656;BME280;55638;51.122;13.606;2023-06-19T07:32:29;99870.47;;;21.60;46.12
68656;BME280;55638;51.122;13.606;2023-06-19T07:34:02;99871.75;;;21.70;46.37
68656;BME280;55638;51.122;13.606;2023-06-19T07:35:34;99874.72;;;21.82;46.89
68656;BME280;55638;51.122;13.606;2023-06-19T07:37:06;99869.66;;;21.92;46.35
68656;BME280;55638;51.122;13.606;2023-06-19T07:38:38;99868.81;;;22.05;45.93
68656;BME280;55638;51.122;13.606;2023-06-19T07:40:10;99877.25;;;22.17;45.24
68656;BME280;55638;51.122;13.606;2023-06-19T07:41:42;99877.28;;;22.30;45.31
68656;BME280;55638;51.122;13.606;2023-06-19T07:43:14;99880.84;;;22.44;45.17
68656;BME280;55638;51.122;13.606;2023-06-19T07:44:47;99891.81;;;22.57;45.13
68656;BME280;55638;51.122;13.606;2023-06-19T07:46:19;99878.47;;;22.67;45.00
68656;BME280;55638;51.122;13.606;2023-06-19T07:47:55;99884.78;;;22.81;44.10
68656;BME280;55638;51.122;13.606;2023-06-19T07:49:27;99881.81;;;22.89;44.26
68656;BME280;55638;51.122;13.606;2023-06-19T07:50:59;99879.44;;;23.00;44.09
68656;BME280;55638;51.122;13.606;2023-06-19T07:52:31;99891.03;;;23.08;44.51
68656;BME280;55638;51.122;13.606;2023-06-19T07:54:03;99889.50;;;23.19;44.58
68656;BME280;55638;51.122;13.606;2023-06-19T07:55:35;99886.72;;;23.26;44.21
68656;BME280;55638;51.122;13.606;2023-06-19T07:57:07;99889.00;;;23.35;44.38
68656;BME280;55638;51.122;13.606;2023-06-19T07:58:40;99895.13;;;23.44;44.18
68656;BME280;55638;51.122;13.606;2023-06-19T08:00:12;99892.13;;;23.52;43.78
68656;BME280;55638;51.122;13.606;2023-06-19T08:01:44;99889.13;;;23.60;44.02
68656;BME280;55638;51.122;13.606;2023-06-19T08:03:16;99884.16;;;23.69;43.04
68656;BME280;55638;51.122;13.606;2023-06-19T08:04:48;99880.53;;;23.75;43.19
68656;BME280;55638;51.122;13.606;2023-06-19T08:06:20;99891.28;;;23.83;43.40